sensor_id;sensor_type;location;lat;lon;timestamp;P1;durP1;ratioP1;P2;durP2;ratioP2
76098;SDS011;64828;49.956;8.636;2023-12-29T00:00:13;3.55;;;2.33;;
76098;SDS011;64828;49.956;8.636;2023-12-29T00:00:29;3.97;;;2.58;;
76098;SDS011;64828;49.956;8.636;2023-12-29T00:00:44;3.63;;;2.53;;
76098;SDS011;64828;49.956;8.636;2023-12-29T00:01:00;3.58;;;2.50;;
76098;SDS011;64828;49.956;8.636;2023-12-29T00:01:17;3.58;;;2.38;;
76098;SDS011;64828;49.956;8.636;2023-12-29T00:01:33;3.67;;;2.28;;
76098;SDS011;64828;49.956;8.636;2023-12-29T00:01:49;4.00;;;2.20;;
76098;SDS011;64828;49.956;8.636;2023-12-29T00:02:04;4.22;;;2.38;;
76098;SDS011;64828;49.956;8.636;2023-12-29T00:02:20;3.33;;;2.28;;
76098;SDS011;64828;49.956;8.636;2023-12-29T00:02:35;3.63;;;2.40;;
76098;SDS011;64828;49.956;8.636;2023-12-29T00:02:51;3.53;;;2.53;;
76098;SDS011;64828;49.956;8.636;2023-12-29T00:03:07;3.30;;;2.53;;
76098;SDS011;64828;49.956;8.636;2023-12-29T00:03:22;3.70;;;2.50;;
76098;SDS011;64828;49.956;8.636;2023-12-29T00:03:38;3.63;;;2.20;;
76098;SDS011;64828;49.956;8.636;2023-12-29T00:03:53;3.15;;;2.17;;
76098;SDS011;64828;49.956;8.636;2023-12-29T00:04:09;2.97;;;2.20;;
76098;SDS011;64828;49.956;8.636;2023-12-29T00:04:27;3.67;;;2.47;;
76098;SDS011;64828;49.956;8.636;2023-12-29T00:04:43;3.15;;;2.40;;
76098;SDS011;64828;49.956;8.636;2023-12-29T00:04:58;2.90;;;2.30;;
76098;SDS011;64828;49.956;8.636;2023-12-29T00:05:14;2.97;;;2.30;;
76098;SDS011;64828;49.956;8.636;2023-12-29T00:05:30;3.03;;;2.40;;
76098;SDS011;64828;49.956;8.636;2023-12-29T00:05:45;3.75;;;2.50;;
76098;SDS011;64828;49.956;8.636;2023-12-29T00:06:04;3.80;;;2.60;;
76098;SDS011;64828;49.956;8.636;2023-12-29T00:06:20;3.10;;;2.42;;
76098;SDS011;64828;49.956;8.636;2023-12-29T00:06:39;3.37;;;2.50;;
76098;SDS011;64828;49.956;8.636;2023-12-29T00:06:55;3.85;;;2.60;;
76098;SDS011;64828;49.956;8.636;2023-12-29T00:07:12;4.25;;;2.80;;
76098;SDS011;64828;49.956;8.636;2023-12-29T00:07:27;5.32;;;2.78;;
76098;SDS011;64828;49.956;8.636;2023-12-29T00:07:43;5.00;;;2.53;;
76098;SDS011;64828;49.956;8.636;2023-12-29T00:07:59;3.80;;;2.42;;
76098;SDS011;64828;49.956;8.636;2023-12-29T00:08:14;3.38;;;2.53;;
76098;SDS011;64828;49.956;8.636;2023-12-29T00:08:30;3.67;;;2.77;;
76098;SDS011;64828;49.956;8.636;2023-12-29T00:08:46;3.63;;;2.42;;
76098;SDS011;64828;49.956;8.636;2023-12-29T00:09:02;3.70;;;2.38;;
76098;SDS011;64828;49.956;8.636;2023-12-29T00:09:17;3.38;;;2.38;;
76098;SDS011;64828;49.956;8.636;2023-12-29T00:09:36;3.47;;;2.40;;
76098;SDS011;64828;49.956;8.636;2023-12-29T00:09:55;3.78;;;2.40;;
76098;SDS011;64828;49.956;8.636;2023-12-29T00:10:11;2.93;;;2.20;;
76098;SDS011;64828;49.956;8.636;2023-12-29T00:10:26;2.90;;;2.20;;
76098;SDS011;64828;49.956;8.636;2023-12-29T00:10:42;3.47;;;2.10;;
76098;SDS011;64828;49.956;8.636;2023-12-29T00:10:58;3.28;;;1.98;;
76098;SDS011;64828;49.956;8.636;2023-12-29T00:11:20;2.47;;;1.98;;
76098;SDS011;64828;49.956;8.636;2023-12-29T00:11:36;3.60;;;2.50;;
76098;SDS011;64828;49.956;8.636;2023-12-29T00:11:51;4.05;;;2.53;;
76098;SDS011;64828;49.956;8.636;2023-12-29T00:12:09;3.72;;;2.40;;
76098;SDS011;64828;49.956;8.636;2023-12-29T00:12:24;3.00;;;2.08;;
76098;SDS011;64828;49.956;8.636;2023-12-29T00:12:40;3.13;;;2.17;;
76098;SDS011;64828;49.956;8.636;2023-12-29T00:12:56;3.15;;;2.08;;
76098;SDS011;64828;49.956;8.636;2023-12-29T00:13:11;2.97;;;1.80;;
76098;SDS011;64828;49.956;8.636;2023-12-29T00:13:27;3.17;;;2.13;;
76098;SDS011;64828;49.956;8.636;2023-12-29T00:13:42;3.47;;;2.42;;
76098;SDS011;64828;49.956;8.636;2023-12-29T00:13:58;2.93;;;2.30;;
76098;SDS011;64828;49.956;8.636;2023-12-29T00:14:13;3.25;;;2.47;;
76098;SDS011;64828;49.956;8.636;2023-12-29T00:14:29;4.17;;;2.37;;
76098;SDS011;64828;49.956;8.636;2023-12-29T00:14:45;3.88;;;2.10;;
76098;SDS011;64828;49.956;8.636;2023-12-29T00:15:00;3.37;;;2.20;;
76098;SDS011;64828;49.956;8.636;2023-12-29T00:15:19;3.55;;;2.20;;
76098;SDS011;64828;49.956;8.636;2023-12-29T00:15:34;3.00;;;2.13;;
76098;SDS011;64828;49.956;8.636;2023-12-29T00:15:53;3.03;;;2.13;;
76098;SDS011;64828;49.956;8.636;2023-12-29T00:16:10;2.97;;;2.00;;
76098;SDS011;64828;49.956;8.636;2023-12-29T00:16:29;3.20;;;2.00;;
76098;SDS011;64828;49.956;8.636;2023-12-29T00:16:44;4.40;;;2.30;;
76098;SDS011;64828;49.956;8.636;2023-12-29T00:17:00;3.50;;;2.23;;
76098;SDS011;64828;49.956;8.636;2023-12-29T00:17:17;2.90;;;2.05;;
76098;SDS011;64828;49.956;8.636;2023-12-29T00:17:33;2.60;;;2.00;;
76098;SDS011;64828;49.956;8.636;2023-12-29T00:17:52;2.63;;;2.00;;
76098;SDS011;64828;49.956;8.636;2023-12-29T00:18:07;3.00;;;2.15;;
76098;SDS011;64828;49.956;8.636;2023-12-29T00:18:23;3.07;;;2.20;;
76098;SDS011;64828;49.956;8.636;2023-12-29T00:18:39;2.63;;;1.77;;
76098;SDS011;64828;49.956;8.636;2023-12-29T00:18:55;3.00;;;1.75;;
76098;SDS011;64828;49.956;8.636;2023-12-29T00:19:11;4.00;;;1.90;;
76098;SDS011;64828;49.956;8.636;2023-12-29T00:19:27;3.53;;;1.98;;
76098;SDS011;64828;49.956;8.636;2023-12-29T00:19:43;3.35;;;2.20;;
76098;SDS011;64828;49.956;8.636;2023-12-29T00:19:58;3.40;;;2.30;;
76098;SDS011;64828;49.956;8.636;2023-12-29T00:20:14;3.15;;;2.22;;
76098;SDS011;64828;49.956;8.636;2023-12-29T00:20:29;3.50;;;2.10;;
76098;SDS011;64828;49.956;8.636;2023-12-29T00:20:45;3.70;;;2.00;;
76098;SDS011;64828;49.956;8.636;2023-12-29T00:21:01;3.13;;;2.08;;
76098;SDS011;64828;49.956;8.636;2023-12-29T00:21:16;2.97;;;2.10;;
76098;SDS011;64828;49.956;8.636;2023-12-29T00:21:32;3.10;;;2.17;;
76098;SDS011;64828;49.956;8.636;2023-12-29T00:21:47;2.97;;;2.30;;
76098;SDS011;64828;49.956;8.636;2023-12-29T00:22:03;3.10;;;2.10;;
76098;SDS011;64828;49.956;8.636;2023-12-29T00:22:19;3.38;;;2.20;;
76098;SDS011;64828;49.956;8.636;2023-12-29T00:22:36;3.47;;;2.10;;
76098;SDS011;64828;49.956;8.636;2023-12-29T00:22:51;3.97;;;2.00;;
76098;SDS011;64828;49.956;8.636;2023-12-29T00:23:09;3.63;;;2.05;;
76098;SDS011;64828;49.956;8.636;2023-12-29T00:23:24;3.55;;;2.25;;
76098;SDS011;64828;49.956;8.636;2023-12-29T00:23:40;3.70;;;2.20;;
76098;SDS011;64828;49.956;8.636;2023-12-29T00:23:55;4.07;;;2.20;;
76098;SDS011;64828;49.956;8.636;2023-12-29T00:24:11;3.70;;;2.20;;
76098;SDS011;64828;49.956;8.636;2023-12-29T00:24:27;3.90;;;2.10;;
76098;SDS011;64828;49.956;8.636;2023-12-29T00:24:43;3.88;;;2.20;;
76098;SDS011;64828;49.956;8.636;2023-12-29T00:24:59;2.80;;;2.10;;
76098;SDS011;64828;49.956;8.636;2023-12-29T00:25:14;2.73;;;2.00;;
76098;SDS011;64828;49.956;8.636;2023-12-29T00:25:30;2.97;;;2.00;;
76098;SDS011;64828;49.956;8.636;2023-12-29T00:25:46;3.08;;;2.20;;
76098;SDS011;64828;49.956;8.636;2023-12-29T00:26:01;3.00;;;2.20;;
76098;SDS011;64828;49.956;8.636;2023-12-29T00:26:17;3.33;;;2.33;;
76098;SDS011;64828;49.956;8.636;2023-12-29T00:26:33;3.72;;;2.47;;
76098;SDS011;64828;49.956;8.636;2023-12-29T00:26:48;3.70;;;2.37;;
76098;SDS011;64828;49.956;8.636;2023-12-29T00:27:04;3.40;;;2.25;;
76098;SDS011;64828;49.956;8.636;2023-12-29T00:27:20;3.10;;;2.17;;
76098;SDS011;64828;49.956;8.636;2023-12-29T00:27:36;3.88;;;2.08;;
76098;SDS011;64828;49.956;8.636;2023-12-29T00:27:51;4.15;;;2.10;;
76098;SDS011;64828;49.956;8.636;2023-12-29T00:28:07;3.13;;;2.22;;
76098;SDS011;64828;49.956;8.636;2023-12-29T00:28:22;2.90;;;2.10;;
76098;SDS011;64828;49.956;8.636;2023-12-29T00:28:38;3.22;;;2.20;;
76098;SDS011;64828;49.956;8.636;2023-12-29T00:28:55;3.58;;;2.13;;
76098;SDS011;64828;49.956;8.636;2023-12-29T00:29:11;3.20;;;2.00;;
76098;SDS011;64828;49.956;8.636;2023-12-29T00:29:26;3.10;;;2.17;;
76098;SDS011;64828;49.956;8.636;2023-12-29T00:29:47;2.85;;;2.10;;
76098;SDS011;64828;49.956;8.636;2023-12-29T00:30:02;2.83;;;1.98;;
76098;SDS011;64828;49.956;8.636;2023-12-29T00:30:18;4.13;;;2.22;;
76098;SDS011;64828;49.956;8.636;2023-12-29T00:30:38;4.63;;;2.35;;
76098;SDS011;64828;49.956;8.636;2023-12-29T00:30:54;3.95;;;2.40;;
76098;SDS011;64828;49.956;8.636;2023-12-29T00:31:16;3.77;;;2.33;;
76098;SDS011;64828;49.956;8.636;2023-12-29T00:31:32;3.65;;;2.08;;
76098;SDS011;64828;49.956;8.636;2023-12-29T00:31:47;3.28;;;1.90;;
76098;SDS011;64828;49.956;8.636;2023-12-29T00:32:03;2.70;;;1.90;;
76098;SDS011;64828;49.956;8.636;2023-12-29T00:32:20;2.55;;;1.95;;
76098;SDS011;64828;49.956;8.636;2023-12-29T00:32:36;3.20;;;2.00;;
76098;SDS011;64828;49.956;8.636;2023-12-29T00:32:51;3.13;;;1.85;;
76098;SDS011;64828;49.956;8.636;2023-12-29T00:33:07;2.87;;;2.03;;
76098;SDS011;64828;49.956;8.636;2023-12-29T00:33:22;2.80;;;2.15;;
76098;SDS011;64828;49.956;8.636;2023-12-29T00:33:38;2.80;;;2.00;;
76098;SDS011;64828;49.956;8.636;2023-12-29T00:33:54;3.20;;;2.10;;
76098;SDS011;64828;49.956;8.636;2023-12-29T00:34:09;3.80;;;2.05;;
76098;SDS011;64828;49.956;8.636;2023-12-29T00:34:25;3.87;;;2.03;;
76098;SDS011;64828;49.956;8.636;2023-12-29T00:34:41;3.40;;;2.20;;
76098;SDS011;64828;49.956;8.636;2023-12-29T00:34:56;2.95;;;2.13;;
76098;SDS011;64828;49.956;8.636;2023-12-29T00:35:12;3.23;;;2.10;;
76098;SDS011;64828;49.956;8.636;2023-12-29T00:35:27;3.92;;;2.00;;
76098;SDS011;64828;49.956;8.636;2023-12-29T00:35:43;3.63;;;1.93;;
76098;SDS011;64828;49.956;8.636;2023-12-29T00:35:59;3.50;;;2.00;;
76098;SDS011;64828;49.956;8.636;2023-12-29T00:36:17;3.30;;;1.98;;
76098;SDS011;64828;49.956;8.636;2023-12-29T00:36:35;2.90;;;1.90;;
76098;SDS011;64828;49.956;8.636;2023-12-29T00:36:50;2.97;;;2.00;;
76098;SDS011;64828;49.956;8.636;2023-12-29T00:37:06;3.22;;;2.28;;
76098;SDS011;64828;49.956;8.636;2023-12-29T00:37:23;3.22;;;2.38;;
76098;SDS011;64828;49.956;8.636;2023-12-29T00:37:38;2.63;;;2.10;;
76098;SDS011;64828;49.956;8.636;2023-12-29T00:37:54;2.60;;;1.90;;
76098;SDS011;64828;49.956;8.636;2023-12-29T00:38:10;3.22;;;2.15;;
76098;SDS011;64828;49.956;8.636;2023-12-29T00:38:28;3.10;;;2.10;;
76098;SDS011;64828;49.956;8.636;2023-12-29T00:38:44;3.40;;;2.05;;
76098;SDS011;64828;49.956;8.636;2023-12-29T00:39:00;3.53;;;2.03;;
76098;SDS011;64828;49.956;8.636;2023-12-29T00:39:15;3.27;;;2.00;;
76098;SDS011;64828;49.956;8.636;2023-12-29T00:39:31;3.58;;;2.17;;
76098;SDS011;64828;49.956;8.636;2023-12-29T00:39:53;3.10;;;1.95;;
76098;SDS011;64828;49.956;8.636;2023-12-29T00:40:09;3.72;;;2.00;;
76098;SDS011;64828;49.956;8.636;2023-12-29T00:40:25;4.03;;;2.20;;
76098;SDS011;64828;49.956;8.636;2023-12-29T00:40:40;3.38;;;2.13;;
76098;SDS011;64828;49.956;8.636;2023-12-29T00:40:56;3.20;;;2.10;;
76098;SDS011;64828;49.956;8.636;2023-12-29T00:41:12;3.00;;;1.90;;
76098;SDS011;64828;49.956;8.636;2023-12-29T00:41:27;3.43;;;2.00;;
76098;SDS011;64828;49.956;8.636;2023-12-29T00:41:43;4.20;;;2.20;;
76098;SDS011;64828;49.956;8.636;2023-12-29T00:41:58;3.25;;;1.98;;
76098;SDS011;64828;49.956;8.636;2023-12-29T00:42:14;2.67;;;2.03;;
76098;SDS011;64828;49.956;8.636;2023-12-29T00:42:30;3.30;;;2.30;;
76098;SDS011;64828;49.956;8.636;2023-12-29T00:42:45;3.30;;;2.17;;
76098;SDS011;64828;49.956;8.636;2023-12-29T00:43:01;2.97;;;1.80;;
76098;SDS011;64828;49.956;8.636;2023-12-29T00:43:17;3.58;;;2.00;;
76098;SDS011;64828;49.956;8.636;2023-12-29T00:43:32;2.77;;;1.73;;
76098;SDS011;64828;49.956;8.636;2023-12-29T00:43:48;2.00;;;1.42;;
76098;SDS011;64828;49.956;8.636;2023-12-29T00:44:03;2.20;;;1.70;;
76098;SDS011;64828;49.956;8.636;2023-12-29T00:44:19;2.47;;;1.90;;
76098;SDS011;64828;49.956;8.636;2023-12-29T00:44:34;2.87;;;2.10;;
76098;SDS011;64828;49.956;8.636;2023-12-29T00:44:50;2.80;;;2.10;;
76098;SDS011;64828;49.956;8.636;2023-12-29T00:45:06;2.67;;;1.80;;
76098;SDS011;64828;49.956;8.636;2023-12-29T00:45:22;2.70;;;1.90;;
76098;SDS011;64828;49.956;8.636;2023-12-29T00:45:38;3.00;;;1.98;;
76098;SDS011;64828;49.956;8.636;2023-12-29T00:45:53;2.93;;;1.93;;
76098;SDS011;64828;49.956;8.636;2023-12-29T00:46:09;2.58;;;1.88;;
76098;SDS011;64828;49.956;8.636;2023-12-29T00:46:25;2.50;;;1.80;;
76098;SDS011;64828;49.956;8.636;2023-12-29T00:46:40;2.60;;;1.87;;
76098;SDS011;64828;49.956;8.636;2023-12-29T00:46:56;3.00;;;2.00;;
76098;SDS011;64828;49.956;8.636;2023-12-29T00:47:12;3.30;;;2.10;;
76098;SDS011;64828;49.956;8.636;2023-12-29T00:47:28;3.33;;;1.90;;
76098;SDS011;64828;49.956;8.636;2023-12-29T00:47:43;3.20;;;2.08;;
76098;SDS011;64828;49.956;8.636;2023-12-29T00:47:59;3.10;;;2.08;;
76098;SDS011;64828;49.956;8.636;2023-12-29T00:48:15;3.00;;;1.80;;
76098;SDS011;64828;49.956;8.636;2023-12-29T00:48:31;2.80;;;1.80;;
76098;SDS011;64828;49.956;8.636;2023-12-29T00:48:47;3.08;;;1.90;;
76098;SDS011;64828;49.956;8.636;2023-12-29T00:49:02;3.10;;;1.87;;
76098;SDS011;64828;49.956;8.636;2023-12-29T00:49:18;2.60;;;1.77;;
76098;SDS011;64828;49.956;8.636;2023-12-29T00:49:34;3.17;;;2.03;;
76098;SDS011;64828;49.956;8.636;2023-12-29T00:49:53;3.03;;;1.92;;
76098;SDS011;64828;49.956;8.636;2023-12-29T00:50:09;2.85;;;1.80;;
76098;SDS011;64828;49.956;8.636;2023-12-29T00:50:25;2.97;;;1.60;;
76098;SDS011;64828;49.956;8.636;2023-12-29T00:50:41;2.45;;;1.50;;
76098;SDS011;64828;49.956;8.636;2023-12-29T00:50:57;3.00;;;1.80;;
76098;SDS011;64828;49.956;8.636;2023-12-29T00:51:13;3.50;;;2.07;;
76098;SDS011;64828;49.956;8.636;2023-12-29T00:51:28;2.90;;;2.10;;
76098;SDS011;64828;49.956;8.636;2023-12-29T00:51:44;3.30;;;2.00;;
76098;SDS011;64828;49.956;8.636;2023-12-29T00:51:59;3.75;;;2.00;;
76098;SDS011;64828;49.956;8.636;2023-12-29T00:52:17;3.55;;;2.05;;
76098;SDS011;64828;49.956;8.636;2023-12-29T00:52:33;3.13;;;2.10;;
76098;SDS011;64828;49.956;8.636;2023-12-29T00:52:51;3.27;;;2.10;;
76098;SDS011;64828;49.956;8.636;2023-12-29T00:53:07;3.17;;;2.00;;
76098;SDS011;64828;49.956;8.636;2023-12-29T00:53:22;2.92;;;2.08;;
76098;SDS011;64828;49.956;8.636;2023-12-29T00:53:38;2.80;;;2.10;;
76098;SDS011;64828;49.956;8.636;2023-12-29T00:53:54;2.55;;;1.90;;
76098;SDS011;64828;49.956;8.636;2023-12-29T00:54:10;2.70;;;1.90;;
76098;SDS011;64828;49.956;8.636;2023-12-29T00:54:25;3.08;;;1.95;;
76098;SDS011;64828;49.956;8.636;2023-12-29T00:54:41;3.47;;;2.10;;
76098;SDS011;64828;49.956;8.636;2023-12-29T00:54:56;3.13;;;2.00;;
76098;SDS011;64828;49.956;8.636;2023-12-29T00:55:13;3.20;;;2.00;;
76098;SDS011;64828;49.956;8.636;2023-12-29T00:55:28;3.67;;;2.10;;
76098;SDS011;64828;49.956;8.636;2023-12-29T00:55:44;2.95;;;1.95;;
76098;SDS011;64828;49.956;8.636;2023-12-29T00:56:00;2.23;;;1.80;;
76098;SDS011;64828;49.956;8.636;2023-12-29T00:56:15;3.17;;;2.00;;
76098;SDS011;64828;49.956;8.636;2023-12-29T00:56:31;4.03;;;2.05;;
76098;SDS011;64828;49.956;8.636;2023-12-29T00:56:50;3.30;;;2.00;;
76098;SDS011;64828;49.956;8.636;2023-12-29T00:57:06;3.08;;;2.10;;
76098;SDS011;64828;49.956;8.636;2023-12-29T00:57:22;3.50;;;2.17;;
76098;SDS011;64828;49.956;8.636;2023-12-29T00:57:37;3.63;;;2.22;;
76098;SDS011;64828;49.956;8.636;2023-12-29T00:57:53;3.77;;;2.20;;
76098;SDS011;64828;49.956;8.636;2023-12-29T00:58:09;3.80;;;2.10;;
76098;SDS011;64828;49.956;8.636;2023-12-29T00:58:25;3.50;;;2.20;;
76098;SDS011;64828;49.956;8.636;2023-12-29T00:58:40;3.63;;;2.30;;
76098;SDS011;64828;49.956;8.636;2023-12-29T00:58:56;3.50;;;2.20;;
76098;SDS011;64828;49.956;8.636;2023-12-29T00:59:12;3.67;;;2.15;;
76098;SDS011;64828;49.956;8.636;2023-12-29T00:59:27;4.10;;;2.13;;
76098;SDS011;64828;49.956;8.636;2023-12-29T00:59:43;3.70;;;2.08;;
76098;SDS011;64828;49.956;8.636;2023-12-29T01:00:02;3.25;;;2.03;;
76098;SDS011;64828;49.956;8.636;2023-12-29T01:00:18;3.33;;;1.95;;
76098;SDS011;64828;49.956;8.636;2023-12-29T01:00:33;3.77;;;1.97;;
76098;SDS011;64828;49.956;8.636;2023-12-29T01:00:49;3.28;;;1.80;;
76098;SDS011;64828;49.956;8.636;2023-12-29T01:01:06;3.00;;;1.70;;
76098;SDS011;64828;49.956;8.636;2023-12-29T01:01:23;2.88;;;2.15;;
76098;SDS011;64828;49.956;8.636;2023-12-29T01:01:39;4.70;;;2.40;;
76098;SDS011;64828;49.956;8.636;2023-12-29T01:01:54;5.13;;;2.30;;
76098;SDS011;64828;49.956;8.636;2023-12-29T01:02:10;3.43;;;2.13;;
76098;SDS011;64828;49.956;8.636;2023-12-29T01:02:26;3.65;;;2.13;;
76098;SDS011;64828;49.956;8.636;2023-12-29T01:02:41;3.50;;;2.20;;
76098;SDS011;64828;49.956;8.636;2023-12-29T01:02:57;2.85;;;2.05;;
76098;SDS011;64828;49.956;8.636;2023-12-29T01:03:12;3.13;;;1.95;;
76098;SDS011;64828;49.956;8.636;2023-12-29T01:03:28;3.97;;;2.03;;
76098;SDS011;64828;49.956;8.636;2023-12-29T01:03:44;4.18;;;2.08;;
76098;SDS011;64828;49.956;8.636;2023-12-29T01:03:59;3.47;;;2.00;;
76098;SDS011;64828;49.956;8.636;2023-12-29T01:04:15;3.22;;;1.95;;
76098;SDS011;64828;49.956;8.636;2023-12-29T01:04:30;3.42;;;2.00;;
76098;SDS011;64828;49.956;8.636;2023-12-29T01:04:46;3.70;;;2.03;;
76098;SDS011;64828;49.956;8.636;2023-12-29T01:05:02;3.40;;;2.03;;
76098;SDS011;64828;49.956;8.636;2023-12-29T01:05:18;3.28;;;2.10;;
76098;SDS011;64828;49.956;8.636;2023-12-29T01:05:33;4.03;;;2.00;;
76098;SDS011;64828;49.956;8.636;2023-12-29T01:05:49;3.95;;;2.00;;
76098;SDS011;64828;49.956;8.636;2023-12-29T01:06:04;4.00;;;2.13;;
76098;SDS011;64828;49.956;8.636;2023-12-29T01:06:20;4.10;;;2.25;;
76098;SDS011;64828;49.956;8.636;2023-12-29T01:06:36;3.47;;;2.40;;
76098;SDS011;64828;49.956;8.636;2023-12-29T01:06:51;3.00;;;2.10;;
76098;SDS011;64828;49.956;8.636;2023-12-29T01:07:08;2.90;;;2.03;;
76098;SDS011;64828;49.956;8.636;2023-12-29T01:07:24;2.97;;;2.10;;
76098;SDS011;64828;49.956;8.636;2023-12-29T01:07:40;2.97;;;2.08;;
76098;SDS011;64828;49.956;8.636;2023-12-29T01:07:55;3.43;;;2.10;;
76098;SDS011;64828;49.956;8.636;2023-12-29T01:08:11;3.67;;;2.22;;
76098;SDS011;64828;49.956;8.636;2023-12-29T01:08:26;3.13;;;2.17;;
76098;SDS011;64828;49.956;8.636;2023-12-29T01:08:43;2.78;;;2.00;;
76098;SDS011;64828;49.956;8.636;2023-12-29T01:08:58;2.90;;;2.10;;
76098;SDS011;64828;49.956;8.636;2023-12-29T01:09:14;3.00;;;2.20;;
76098;SDS011;64828;49.956;8.636;2023-12-29T01:09:29;4.03;;;2.10;;
76098;SDS011;64828;49.956;8.636;2023-12-29T01:09:45;3.97;;;2.08;;
76098;SDS011;64828;49.956;8.636;2023-12-29T01:10:01;2.67;;;1.90;;
76098;SDS011;64828;49.956;8.636;2023-12-29T01:10:17;3.10;;;2.10;;
76098;SDS011;64828;49.956;8.636;2023-12-29T01:10:32;3.37;;;2.20;;
76098;SDS011;64828;49.956;8.636;2023-12-29T01:10:48;3.30;;;2.20;;
76098;SDS011;64828;49.956;8.636;2023-12-29T01:11:04;3.60;;;2.17;;
76098;SDS011;64828;49.956;8.636;2023-12-29T01:11:19;3.10;;;1.90;;
76098;SDS011;64828;49.956;8.636;2023-12-29T01:11:35;2.85;;;2.08;;
76098;SDS011;64828;49.956;8.636;2023-12-29T01:11:50;3.47;;;2.13;;
76098;SDS011;64828;49.956;8.636;2023-12-29T01:12:06;4.07;;;2.08;;
76098;SDS011;64828;49.956;8.636;2023-12-29T01:12:22;4.30;;;2.20;;
76098;SDS011;64828;49.956;8.636;2023-12-29T01:12:37;3.30;;;2.20;;
76098;SDS011;64828;49.956;8.636;2023-12-29T01:12:53;3.35;;;2.30;;
76098;SDS011;64828;49.956;8.636;2023-12-29T01:13:08;3.13;;;2.03;;
76098;SDS011;64828;49.956;8.636;2023-12-29T01:13:24;2.83;;;1.60;;
76098;SDS011;64828;49.956;8.636;2023-12-29T01:13:39;3.83;;;1.90;;
76098;SDS011;64828;49.956;8.636;2023-12-29T01:13:55;3.67;;;2.10;;
76098;SDS011;64828;49.956;8.636;2023-12-29T01:14:12;3.20;;;2.08;;
76098;SDS011;64828;49.956;8.636;2023-12-29T01:14:28;3.20;;;2.08;;
76098;SDS011;64828;49.956;8.636;2023-12-29T01:14:43;3.23;;;2.33;;
76098;SDS011;64828;49.956;8.636;2023-12-29T01:14:59;3.97;;;2.50;;
76098;SDS011;64828;49.956;8.636;2023-12-29T01:15:15;4.43;;;2.40;;
76098;SDS011;64828;49.956;8.636;2023-12-29T01:15:30;4.10;;;2.17;;
76098;SDS011;64828;49.956;8.636;2023-12-29T01:15:46;3.20;;;2.10;;
76098;SDS011;64828;49.956;8.636;2023-12-29T01:16:02;3.07;;;2.30;;
76098;SDS011;64828;49.956;8.636;2023-12-29T01:16:17;3.00;;;2.20;;
76098;SDS011;64828;49.956;8.636;2023-12-29T01:16:33;3.03;;;1.90;;
76098;SDS011;64828;49.956;8.636;2023-12-29T01:16:49;4.30;;;2.10;;
76098;SDS011;64828;49.956;8.636;2023-12-29T01:17:04;4.30;;;2.33;;
76098;SDS011;64828;49.956;8.636;2023-12-29T01:17:20;3.50;;;2.33;;
76098;SDS011;64828;49.956;8.636;2023-12-29T01:17:37;3.28;;;2.30;;
76098;SDS011;64828;49.956;8.636;2023-12-29T01:17:52;3.30;;;2.20;;
76098;SDS011;64828;49.956;8.636;2023-12-29T01:18:08;3.13;;;2.20;;
76098;SDS011;64828;49.956;8.636;2023-12-29T01:18:23;3.20;;;2.25;;
76098;SDS011;64828;49.956;8.636;2023-12-29T01:18:39;2.97;;;2.00;;
76098;SDS011;64828;49.956;8.636;2023-12-29T01:18:55;3.67;;;2.10;;
76098;SDS011;64828;49.956;8.636;2023-12-29T01:19:10;4.05;;;2.30;;
76098;SDS011;64828;49.956;8.636;2023-12-29T01:19:26;4.03;;;2.30;;
76098;SDS011;64828;49.956;8.636;2023-12-29T01:19:41;4.28;;;2.28;;
76098;SDS011;64828;49.956;8.636;2023-12-29T01:19:57;3.37;;;2.17;;
76098;SDS011;64828;49.956;8.636;2023-12-29T01:20:12;2.78;;;2.00;;
76098;SDS011;64828;49.956;8.636;2023-12-29T01:20:28;2.90;;;2.08;;
76098;SDS011;64828;49.956;8.636;2023-12-29T01:20:44;3.30;;;2.23;;
76098;SDS011;64828;49.956;8.636;2023-12-29T01:20:59;3.53;;;2.13;;
76098;SDS011;64828;49.956;8.636;2023-12-29T01:21:15;3.57;;;2.20;;
76098;SDS011;64828;49.956;8.636;2023-12-29T01:21:30;3.08;;;2.13;;
76098;SDS011;64828;49.956;8.636;2023-12-29T01:21:48;3.03;;;2.10;;
76098;SDS011;64828;49.956;8.636;2023-12-29T01:22:04;3.40;;;2.40;;
76098;SDS011;64828;49.956;8.636;2023-12-29T01:22:20;2.95;;;2.30;;
76098;SDS011;64828;49.956;8.636;2023-12-29T01:22:35;3.38;;;2.25;;
76098;SDS011;64828;49.956;8.636;2023-12-29T01:22:51;4.07;;;2.33;;
76098;SDS011;64828;49.956;8.636;2023-12-29T01:23:06;3.72;;;2.40;;
76098;SDS011;64828;49.956;8.636;2023-12-29T01:23:22;3.07;;;2.27;;
76098;SDS011;64828;49.956;8.636;2023-12-29T01:23:38;3.13;;;2.10;;
76098;SDS011;64828;49.956;8.636;2023-12-29T01:23:53;3.17;;;2.10;;
76098;SDS011;64828;49.956;8.636;2023-12-29T01:24:09;3.43;;;2.03;;
76098;SDS011;64828;49.956;8.636;2023-12-29T01:24:25;3.53;;;2.22;;
76098;SDS011;64828;49.956;8.636;2023-12-29T01:24:40;3.70;;;2.53;;
76098;SDS011;64828;49.956;8.636;2023-12-29T01:24:58;3.88;;;2.45;;
76098;SDS011;64828;49.956;8.636;2023-12-29T01:25:15;3.42;;;2.30;;
76098;SDS011;64828;49.956;8.636;2023-12-29T01:25:30;2.85;;;2.08;;
76098;SDS011;64828;49.956;8.636;2023-12-29T01:25:46;2.87;;;1.90;;
76098;SDS011;64828;49.956;8.636;2023-12-29T01:26:01;3.00;;;2.17;;
76098;SDS011;64828;49.956;8.636;2023-12-29T01:26:17;4.00;;;2.40;;
76098;SDS011;64828;49.956;8.636;2023-12-29T01:26:36;3.88;;;2.28;;
76098;SDS011;64828;49.956;8.636;2023-12-29T01:26:53;3.85;;;2.40;;
76098;SDS011;64828;49.956;8.636;2023-12-29T01:27:08;3.97;;;2.30;;
76098;SDS011;64828;49.956;8.636;2023-12-29T01:27:24;3.15;;;2.10;;
76098;SDS011;64828;49.956;8.636;2023-12-29T01:27:39;2.92;;;2.20;;
76098;SDS011;64828;49.956;8.636;2023-12-29T01:27:55;3.53;;;2.30;;
76098;SDS011;64828;49.956;8.636;2023-12-29T01:28:11;3.88;;;2.35;;
76098;SDS011;64828;49.956;8.636;2023-12-29T01:28:26;3.60;;;2.50;;
76098;SDS011;64828;49.956;8.636;2023-12-29T01:28:42;3.38;;;2.45;;
76098;SDS011;64828;49.956;8.636;2023-12-29T01:28:58;3.47;;;2.40;;
76098;SDS011;64828;49.956;8.636;2023-12-29T01:29:13;3.60;;;2.30;;
76098;SDS011;64828;49.956;8.636;2023-12-29T01:29:29;3.70;;;2.40;;
76098;SDS011;64828;49.956;8.636;2023-12-29T01:29:44;3.37;;;2.37;;
76098;SDS011;64828;49.956;8.636;2023-12-29T01:30:00;3.00;;;2.25;;
76098;SDS011;64828;49.956;8.636;2023-12-29T01:30:16;2.90;;;2.10;;
76098;SDS011;64828;49.956;8.636;2023-12-29T01:30:31;3.90;;;2.40;;
76098;SDS011;64828;49.956;8.636;2023-12-29T01:30:47;4.20;;;2.63;;
76098;SDS011;64828;49.956;8.636;2023-12-29T01:31:02;3.80;;;2.60;;
76098;SDS011;64828;49.956;8.636;2023-12-29T01:31:18;4.25;;;2.50;;
76098;SDS011;64828;49.956;8.636;2023-12-29T01:31:34;4.43;;;2.38;;
76098;SDS011;64828;49.956;8.636;2023-12-29T01:31:49;4.87;;;2.30;;
76098;SDS011;64828;49.956;8.636;2023-12-29T01:32:05;4.60;;;2.47;;
76098;SDS011;64828;49.956;8.636;2023-12-29T01:32:22;3.83;;;2.50;;
76098;SDS011;64828;49.956;8.636;2023-12-29T01:32:38;4.18;;;2.50;;
76098;SDS011;64828;49.956;8.636;2023-12-29T01:32:54;3.95;;;2.50;;
76098;SDS011;64828;49.956;8.636;2023-12-29T01:33:09;3.67;;;2.30;;
76098;SDS011;64828;49.956;8.636;2023-12-29T01:33:25;3.35;;;2.13;;
76098;SDS011;64828;49.956;8.636;2023-12-29T01:33:40;3.40;;;2.20;;
76098;SDS011;64828;49.956;8.636;2023-12-29T01:33:56;3.78;;;2.15;;
76098;SDS011;64828;49.956;8.636;2023-12-29T01:34:12;3.30;;;2.10;;
76098;SDS011;64828;49.956;8.636;2023-12-29T01:34:29;3.17;;;2.35;;
76098;SDS011;64828;49.956;8.636;2023-12-29T01:34:48;3.85;;;2.50;;
76098;SDS011;64828;49.956;8.636;2023-12-29T01:35:04;3.40;;;2.40;;
76098;SDS011;64828;49.956;8.636;2023-12-29T01:35:20;2.88;;;2.13;;
76098;SDS011;64828;49.956;8.636;2023-12-29T01:35:36;3.33;;;2.30;;
76098;SDS011;64828;49.956;8.636;2023-12-29T01:35:52;3.45;;;2.55;;
76098;SDS011;64828;49.956;8.636;2023-12-29T01:36:07;3.60;;;2.30;;
76098;SDS011;64828;49.956;8.636;2023-12-29T01:36:23;3.40;;;2.05;;